createdAt,value
2022-08-11T00:00:20.858Z,66.86
2022-08-11T00:01:20.838Z,66.75
2022-08-11T00:02:20.926Z,66.86
2022-08-11T00:03:20.897Z,65.98
2022-08-11T00:04:20.806Z,65.88
2022-08-11T00:05:20.797Z,65.98
2022-08-11T00:06:20.771Z,66.78
2022-08-11T00:07:20.758Z,67.49
2022-08-11T00:08:20.751Z,67.90
2022-08-11T00:09:20.729Z,69.31
2022-08-11T00:10:20.730Z,67.39
2022-08-11T00:11:20.714Z,67.49
2022-08-11T00:12:20.705Z,68.10
2022-08-11T00:13:20.682Z,67.90
2022-08-11T00:14:20.667Z,67.29
2022-08-11T00:15:20.651Z,66.99
2022-08-11T00:16:20.635Z,67.09
2022-08-11T00:17:20.624Z,68.10
2022-08-11T00:18:20.617Z,67.80
2022-08-11T00:20:11.883Z,66.69
2022-08-11T00:20:21.603Z,66.58
2022-08-11T00:21:20.567Z,67.80
2022-08-11T00:22:21.609Z,68.10
2022-08-11T00:23:20.546Z,67.90
2022-08-11T00:24:20.541Z,68.20
2022-08-11T00:25:20.523Z,68.23
2022-08-11T00:26:20.507Z,68.60
2022-08-11T00:27:20.494Z,68.10
2022-08-11T00:28:20.482Z,68.00
2022-08-11T00:29:20.464Z,68.10
2022-08-11T00:30:20.453Z,66.89
2022-08-11T00:31:20.432Z,66.69
2022-08-11T00:32:20.427Z,67.09
2022-08-11T00:33:20.404Z,67.32
2022-08-11T00:34:20.402Z,68.20
2022-08-11T00:35:51.317Z,68.30
2022-08-11T00:36:25.434Z,67.72
2022-08-11T00:37:20.357Z,68.23
2022-08-11T00:38:20.345Z,67.63
2022-08-11T00:39:20.467Z,67.93
2022-08-11T00:40:20.323Z,68.54
2022-08-11T00:41:20.307Z,68.47
2022-08-11T00:42:20.293Z,68.47
2022-08-11T00:43:21.062Z,69.38
2022-08-11T00:44:20.261Z,69.18
2022-08-11T00:45:20.253Z,69.18
2022-08-11T00:46:20.235Z,69.58
2022-08-11T00:47:20.219Z,69.07
2022-08-11T00:48:20.210Z,69.07
2022-08-11T00:49:20.193Z,68.97
2022-08-11T00:50:20.183Z,69.07
2022-08-11T00:51:20.167Z,71.20
2022-08-11T00:52:20.154Z,69.78
2022-08-11T00:53:20.141Z,69.89
2022-08-11T00:54:20.124Z,69.71
2022-08-11T00:55:20.108Z,70.29
2022-08-11T00:56:20.098Z,71.09
2022-08-11T00:57:36.942Z,69.38
2022-08-11T00:58:22.508Z,69.98
2022-08-11T00:59:35.566Z,69.98
2022-08-11T01:00:20.048Z,69.68
2022-08-11T01:01:20.151Z,70.29
2022-08-11T01:02:20.019Z,69.78
2022-08-11T01:03:20.010Z,69.78
2022-08-11T01:04:19.995Z,69.68
2022-08-11T01:05:19.978Z,69.98
2022-08-11T01:06:19.968Z,69.61
2022-08-11T01:08:00.433Z,69.92
2022-08-11T01:08:19.934Z,70.12
2022-08-11T01:09:22.091Z,70.22
2022-08-11T01:10:19.910Z,69.92
2022-08-11T01:11:19.891Z,70.73
2022-08-11T01:12:19.876Z,70.42
2022-08-11T01:13:19.862Z,70.22
2022-08-11T01:14:19.856Z,71.06
2022-08-11T01:15:19.841Z,71.67
2022-08-11T01:16:19.836Z,71.33
2022-08-11T01:17:19.810Z,70.62
2022-08-11T01:18:19.801Z,71.33
2022-08-11T01:19:19.785Z,70.96
2022-08-11T01:20:45.543Z,70.45
2022-08-11T01:21:19.753Z,71.03
2022-08-11T01:22:19.747Z,71.37
2022-08-11T01:23:19.724Z,71.26
2022-08-11T01:24:19.716Z,71.16
2022-08-11T01:25:19.699Z,71.57
2022-08-11T01:26:19.694Z,71.57
2022-08-11T01:27:20.101Z,71.16
2022-08-11T01:28:19.669Z,71.37
2022-08-11T01:29:19.661Z,73.19
2022-08-11T01:30:19.636Z,71.88
2022-08-11T01:31:19.623Z,71.57
2022-08-11T01:32:19.606Z,71.57
2022-08-11T01:33:19.596Z,72.08
2022-08-11T01:34:19.587Z,72.78
2022-08-11T01:35:19.564Z,71.77
2022-08-11T01:36:19.559Z,71.67
2022-08-11T01:37:19.539Z,71.88
2022-08-11T01:38:19.532Z,72.08
2022-08-11T01:39:19.538Z,72.58
2022-08-11T01:40:19.508Z,72.01
2022-08-11T01:41:19.484Z,71.91
2022-08-11T01:42:19.479Z,71.97
2022-08-11T01:43:19.455Z,72.72
2022-08-11T01:44:19.453Z,73.12
2022-08-11T01:45:19.433Z,72.41
2022-08-11T01:46:19.426Z,72.61
2022-08-11T01:47:19.402Z,73.73
2022-08-11T01:48:19.395Z,73.02
2022-08-11T01:50:05.771Z,72.61
2022-08-11T01:50:19.364Z,72.41
2022-08-11T01:51:19.351Z,72.72
2022-08-11T01:52:19.337Z,73.83
2022-08-11T01:53:19.330Z,72.31
2022-08-11T01:54:19.312Z,72.61
2022-08-11T01:55:19.300Z,73.53
2022-08-11T01:56:19.282Z,73.73
2022-08-11T01:57:19.271Z,73.43
2022-08-11T01:58:19.260Z,73.56
2022-08-11T01:59:19.246Z,73.93
2022-08-11T02:00:19.337Z,72.81
2022-08-11T02:01:19.255Z,73.05
2022-08-11T02:02:21.504Z,73.32
2022-08-11T02:03:19.188Z,73.36
2022-08-11T02:04:19.176Z,73.12
2022-08-11T02:05:19.161Z,73.36
2022-08-11T02:06:19.153Z,73.25
2022-08-11T02:07:19.132Z,73.36
2022-08-11T02:08:19.129Z,73.25
2022-08-11T02:09:19.106Z,74.17
2022-08-11T02:10:19.098Z,73.97
2022-08-11T02:11:19.075Z,73.86
2022-08-11T02:12:19.070Z,73.46
2022-08-11T02:13:30.270Z,73.56
2022-08-11T02:14:19.048Z,73.46
2022-08-11T02:15:19.022Z,73.56
2022-08-11T02:16:19.018Z,73.97
2022-08-11T02:17:18.999Z,73.80
2022-08-11T02:18:18.990Z,73.97
2022-08-11T02:19:18.973Z,73.90
2022-08-11T02:20:18.959Z,74.68
2022-08-11T02:21:18.948Z,75.18
2022-08-11T02:22:18.944Z,74.10
2022-08-11T02:24:00.552Z,74.51
2022-08-11T02:24:19.925Z,73.66
2022-08-11T02:25:18.889Z,74.10
2022-08-11T02:26:18.881Z,75.08
2022-08-11T02:27:18.864Z,75.52
2022-08-11T02:28:18.854Z,74.57
2022-08-11T02:29:18.843Z,74.37
2022-08-11T02:30:18.823Z,74.30
2022-08-11T02:32:11.001Z,74.21
2022-08-11T02:32:28.903Z,75.32
2022-08-11T02:33:18.779Z,75.42
2022-08-11T02:34:18.778Z,75.32
2022-08-11T02:35:18.757Z,75.01
2022-08-11T02:36:18.745Z,74.71
2022-08-11T02:37:22.025Z,74.71
2022-08-11T02:38:18.720Z,75.93
2022-08-11T02:39:18.940Z,75.32
2022-08-11T02:40:18.694Z,74.91
2022-08-11T02:41:18.675Z,74.71
2022-08-11T02:42:35.094Z,75.01
2022-08-11T02:43:19.670Z,75.52
2022-08-11T02:44:18.657Z,75.42
2022-08-11T02:45:18.622Z,75.52
2022-08-11T02:46:18.756Z,76.47
2022-08-11T02:47:18.598Z,75.96
2022-08-11T02:48:18.580Z,75.35
2022-08-11T02:49:18.562Z,75.35
2022-08-11T02:50:18.557Z,75.76
2022-08-11T02:51:21.865Z,75.66
2022-08-11T02:52:18.536Z,76.51
2022-08-11T02:53:18.511Z,76.67
2022-08-11T02:54:18.499Z,76.91
2022-08-11T02:55:56.285Z,76.47
2022-08-11T02:56:18.471Z,75.66
2022-08-11T02:57:18.452Z,76.67
2022-08-11T02:58:19.967Z,76.61
2022-08-11T02:59:18.432Z,76.17
2022-08-11T03:00:18.416Z,75.70
2022-08-11T03:01:18.473Z,75.29
2022-08-11T03:02:18.418Z,77.01
2022-08-11T03:03:18.391Z,76.91
2022-08-11T03:04:18.364Z,76.40
2022-08-11T03:05:18.347Z,75.96
2022-08-11T03:06:18.338Z,75.96
2022-08-11T03:07:28.911Z,76.10
2022-08-11T03:08:18.309Z,76.00
2022-08-11T03:09:18.293Z,76.10
2022-08-11T03:10:18.295Z,76.71
2022-08-11T03:11:18.267Z,77.01
2022-08-11T03:12:18.261Z,76.61
2022-08-11T03:13:18.242Z,75.79
2022-08-11T03:14:18.231Z,76.10
2022-08-11T03:15:18.214Z,76.40
2022-08-11T03:16:18.205Z,77.01
2022-08-11T03:17:18.191Z,77.72
2022-08-11T03:18:18.173Z,77.76
2022-08-11T03:19:18.154Z,77.93
2022-08-11T03:20:18.148Z,77.76
2022-08-11T03:21:18.127Z,77.42
2022-08-11T03:22:18.129Z,77.12
2022-08-11T03:23:20.080Z,77.12
2022-08-11T03:24:18.099Z,77.01
2022-08-11T03:25:18.078Z,76.81
2022-08-11T03:26:18.064Z,76.61
2022-08-11T03:27:18.047Z,76.71
2022-08-11T03:28:18.037Z,77.25
2022-08-11T03:29:18.313Z,77.36
2022-08-11T03:30:18.012Z,77.12
2022-08-11T03:31:17.992Z,77.52
2022-08-11T03:32:17.985Z,77.12
2022-08-11T03:33:17.972Z,77.01
2022-08-11T03:34:17.964Z,76.81
2022-08-11T03:35:21.542Z,77.12
2022-08-11T03:36:17.934Z,77.56
2022-08-11T03:37:18.404Z,77.15
2022-08-11T03:38:17.904Z,76.95
2022-08-11T03:39:17.962Z,77.05
2022-08-11T03:40:17.879Z,77.36
2022-08-11T03:42:01.997Z,77.76
2022-08-11T03:42:17.846Z,77.86
2022-08-11T03:43:17.935Z,77.25
2022-08-11T03:44:17.824Z,77.36
2022-08-11T03:45:17.806Z,77.49
2022-08-11T03:46:17.799Z,77.19
2022-08-11T03:47:17.779Z,78.06
2022-08-11T03:48:17.770Z,78.81
2022-08-11T03:49:17.752Z,78.30
2022-08-11T03:50:17.739Z,77.80
2022-08-11T03:51:17.719Z,78.61
2022-08-11T03:52:17.708Z,78.75
2022-08-11T03:53:17.690Z,79.42
2022-08-11T03:54:17.684Z,79.42
2022-08-11T03:55:17.671Z,78.30
2022-08-11T03:56:17.656Z,78.91
2022-08-11T03:57:17.648Z,78.81
2022-08-11T03:58:17.620Z,79.32
2022-08-11T03:59:17.627Z,79.02
2022-08-11T04:00:17.606Z,78.71
2022-08-11T04:01:17.608Z,78.81
2022-08-11T04:02:17.568Z,78.71
2022-08-11T04:03:17.555Z,78.20
2022-08-11T04:04:17.538Z,78.61
2022-08-11T04:05:17.530Z,79.32
2022-08-11T04:06:17.517Z,78.88
2022-08-11T04:07:17.895Z,78.71
2022-08-11T04:08:17.484Z,79.42
2022-08-11T04:09:17.474Z,79.42
2022-08-11T04:10:17.456Z,79.32
2022-08-11T04:11:17.446Z,79.28
2022-08-11T04:12:17.430Z,79.42
2022-08-11T04:13:17.422Z,79.12
2022-08-11T04:14:17.405Z,79.72
2022-08-11T04:15:17.423Z,80.40
2022-08-11T04:16:17.384Z,79.42
2022-08-11T04:17:17.370Z,79.12
2022-08-11T04:18:17.359Z,79.08
2022-08-11T04:19:17.342Z,78.20
2022-08-11T04:20:17.339Z,78.30
2022-08-11T04:21:17.312Z,79.02
2022-08-11T04:22:17.290Z,79.22
2022-08-11T04:24:35.011Z,79.25
2022-08-11T04:24:38.437Z,79.42
2022-08-11T04:25:18.327Z,79.86
2022-08-11T04:26:18.825Z,79.83
2022-08-11T04:27:17.231Z,79.22
2022-08-11T04:28:28.391Z,79.63
2022-08-11T04:29:17.204Z,79.52
2022-08-11T04:30:17.181Z,79.36
2022-08-11T04:31:44.056Z,79.72
2022-08-11T04:32:17.154Z,80.07
2022-08-11T04:33:17.142Z,80.07
2022-08-11T04:34:17.130Z,79.52
2022-08-11T04:35:17.120Z,79.63
2022-08-11T04:36:17.101Z,81.86
2022-08-11T04:37:17.092Z,79.72
2022-08-11T04:38:17.079Z,78.47
2022-08-11T04:39:17.110Z,78.91
2022-08-11T04:40:17.050Z,78.34
2022-08-11T04:41:17.042Z,78.64
2022-08-11T04:42:17.025Z,78.95
2022-08-11T04:43:17.012Z,79.05
2022-08-11T04:44:16.995Z,79.25
2022-08-11T04:45:16.983Z,79.60
2022-08-11T04:46:16.964Z,79.86
2022-08-11T04:47:16.956Z,79.86
2022-08-11T04:48:17.136Z,80.11
2022-08-11T04:49:25.654Z,80.92
2022-08-11T04:50:16.912Z,80.72
2022-08-11T04:51:17.791Z,79.97
2022-08-11T04:52:16.881Z,79.97
2022-08-11T04:53:16.873Z,79.90
2022-08-11T04:54:16.860Z,79.56
2022-08-11T04:55:16.851Z,80.17
2022-08-11T04:56:16.834Z,80.68
2022-08-11T04:57:16.825Z,80.27
2022-08-11T04:58:16.802Z,80.07
2022-08-11T04:59:16.788Z,81.19
2022-08-11T05:00:16.772Z,79.72
2022-08-11T05:01:16.801Z,79.42
2022-08-11T05:02:17.664Z,79.32
2022-08-11T05:03:16.741Z,79.36
2022-08-11T05:04:16.722Z,79.42
2022-08-11T05:05:16.714Z,79.36
2022-08-11T05:06:16.695Z,79.42
2022-08-11T05:07:16.685Z,79.83
2022-08-11T05:08:18.573Z,79.32
2022-08-11T05:09:16.658Z,79.32
2022-08-11T05:10:16.637Z,79.42
2022-08-11T05:11:16.624Z,79.42
2022-08-11T05:12:16.613Z,79.22
2022-08-11T05:13:16.605Z,79.22
2022-08-11T05:14:16.587Z,79.22
2022-08-11T05:15:16.576Z,79.12
2022-08-11T05:16:16.565Z,79.02
2022-08-11T05:17:16.561Z,78.91
2022-08-11T05:18:16.531Z,78.91
2022-08-11T05:19:16.518Z,78.78
2022-08-11T05:20:16.502Z,79.69
2022-08-11T05:21:16.491Z,79.28
2022-08-11T05:22:16.473Z,80.71
2022-08-11T05:23:16.463Z,79.79
2022-08-11T05:24:16.447Z,79.65
2022-08-11T05:26:46.148Z,78.13
2022-08-11T05:26:47.303Z,78.23
2022-08-11T05:27:17.435Z,77.28
2022-08-11T05:28:16.395Z,78.19
2022-08-11T05:29:19.574Z,76.78
2022-08-11T05:30:16.365Z,76.98
2022-08-11T05:31:16.361Z,76.78
2022-08-11T05:32:16.339Z,76.47
2022-08-11T05:33:16.328Z,76.54
2022-08-11T05:34:16.320Z,76.54
2022-08-11T05:35:59.802Z,76.33
2022-08-11T05:36:16.289Z,76.03
2022-08-11T05:37:26.725Z,76.50
2022-08-11T05:38:17.286Z,76.09
2022-08-11T05:39:16.298Z,75.45
2022-08-11T05:40:16.229Z,76.77
2022-08-11T05:41:16.219Z,76.97
2022-08-11T05:42:20.866Z,77.07
2022-08-11T05:43:16.194Z,77.03
2022-08-11T05:44:21.628Z,75.21
2022-08-11T05:45:17.193Z,74.60
2022-08-11T05:46:16.157Z,74.37
2022-08-11T05:47:16.150Z,73.96
2022-08-11T05:48:16.128Z,74.74
2022-08-11T05:49:16.119Z,74.84
2022-08-11T05:50:16.094Z,74.63
2022-08-11T05:51:16.356Z,73.69
2022-08-11T05:52:16.465Z,73.59
2022-08-11T05:53:16.120Z,73.39
2022-08-11T05:54:28.558Z,72.64
2022-08-11T05:55:17.047Z,71.64
2022-08-11T05:56:16.013Z,71.53
2022-08-11T05:57:48.470Z,71.44
2022-08-11T05:58:17.012Z,71.80
2022-08-11T05:59:15.980Z,71.30
2022-08-11T06:00:15.968Z,71.17
2022-08-11T06:01:15.997Z,71.00
2022-08-11T06:02:15.934Z,71.06
2022-08-11T06:03:15.921Z,70.46
2022-08-11T06:04:15.916Z,70.66
2022-08-11T06:05:15.891Z,70.02
2022-08-11T06:06:15.880Z,69.52
2022-08-11T06:07:15.868Z,69.99
2022-08-11T06:08:15.855Z,69.28
2022-08-11T06:09:15.845Z,69.79
2022-08-11T06:10:15.827Z,69.35
2022-08-11T06:11:15.815Z,68.44
2022-08-11T06:12:15.799Z,68.34
2022-08-11T06:13:15.791Z,67.94
2022-08-11T06:14:15.881Z,67.91
2022-08-11T06:15:15.759Z,68.01
2022-08-11T06:16:15.765Z,67.50
2022-08-11T06:17:15.736Z,67.37
2022-08-11T06:18:15.712Z,67.34
2022-08-11T06:19:15.708Z,66.63
2022-08-11T06:20:15.687Z,66.03
2022-08-11T06:21:15.675Z,65.50
2022-08-11T06:22:15.667Z,66.10
2022-08-11T06:23:15.654Z,67.91
2022-08-11T06:24:15.637Z,66.17
2022-08-11T06:25:15.627Z,65.23
2022-08-11T06:26:15.610Z,64.33
2022-08-11T06:27:15.601Z,64.60
2022-08-11T06:28:20.376Z,63.36
2022-08-11T06:29:15.576Z,63.56
2022-08-11T06:30:15.552Z,62.36
2022-08-11T06:31:15.544Z,63.33
2022-08-11T06:32:15.525Z,63.00
2022-08-11T06:33:15.517Z,60.80
2022-08-11T06:34:27.387Z,61.00
2022-08-11T06:35:16.514Z,61.80
2022-08-11T06:36:15.474Z,60.89
2022-08-11T06:37:15.467Z,62.70
2022-08-11T06:38:15.445Z,61.14
2022-08-11T06:39:15.468Z,60.74
2022-08-11T06:40:15.418Z,60.84
2022-08-11T06:41:15.410Z,59.83
2022-08-11T06:42:15.392Z,60.03
2022-08-11T06:43:15.380Z,59.91
2022-08-11T06:44:15.366Z,59.70
2022-08-11T06:45:15.353Z,60.71
2022-08-11T06:46:28.169Z,60.11
2022-08-11T06:47:15.333Z,59.61
2022-08-11T06:48:15.318Z,60.81
2022-08-11T06:49:15.307Z,59.41
2022-08-11T06:50:15.293Z,59.44
2022-08-11T06:51:15.281Z,60.01
2022-08-11T06:52:34.943Z,60.21
2022-08-11T06:53:15.263Z,60.18
2022-08-11T06:54:15.235Z,59.28
2022-08-11T06:55:54.801Z,58.78
2022-08-11T06:56:16.233Z,59.88
2022-08-11T06:57:31.253Z,59.88
2022-08-11T06:58:16.203Z,59.58
2022-08-11T06:59:15.171Z,60.05
2022-08-11T07:00:15.153Z,59.75
2022-08-11T07:01:15.215Z,59.12
2022-08-11T07:02:15.131Z,59.59
2022-08-11T07:03:15.121Z,58.06
2022-08-11T07:04:15.104Z,56.04
2022-08-11T07:05:15.095Z,55.81
2022-08-11T07:06:15.078Z,57.21
2022-08-11T07:07:15.070Z,56.91
2022-08-11T07:08:34.469Z,56.84
2022-08-11T07:09:15.041Z,56.54
2022-08-11T07:10:15.025Z,56.74
2022-08-11T07:11:15.017Z,56.04
2022-08-11T07:12:14.998Z,55.94
2022-08-11T07:13:38.238Z,58.21
2022-08-11T07:14:14.970Z,56.21
2022-08-11T07:15:14.962Z,56.91
2022-08-11T07:16:14.945Z,57.11
2022-08-11T07:17:14.958Z,56.61
2022-08-11T07:18:14.916Z,57.39
2022-08-11T07:19:16.635Z,56.51
2022-08-11T07:20:14.886Z,56.61
2022-08-11T07:22:00.244Z,56.81
2022-08-11T07:22:15.882Z,57.21
2022-08-11T07:23:14.851Z,55.81
2022-08-11T07:24:14.839Z,56.09
2022-08-11T07:25:14.824Z,56.68
2022-08-11T07:26:14.810Z,57.26
2022-08-11T07:27:14.802Z,56.36
2022-08-11T07:28:14.786Z,55.46
2022-08-11T07:29:14.776Z,54.53
2022-08-11T07:30:14.772Z,53.74
2022-08-11T07:31:14.749Z,54.31
2022-08-11T07:32:14.729Z,52.86
2022-08-11T07:34:04.841Z,52.49
2022-08-11T07:34:18.116Z,50.26
2022-08-11T07:35:14.698Z,49.61
2022-08-11T07:36:14.673Z,47.49
2022-08-11T07:37:14.668Z,47.74
2022-08-11T07:38:17.204Z,46.52
2022-08-11T07:39:14.686Z,45.34
2022-08-11T07:40:14.628Z,44.42
2022-08-11T07:41:14.614Z,44.01
2022-08-11T07:42:14.595Z,44.78
2022-08-11T07:43:14.581Z,44.26
2022-08-11T07:44:14.567Z,44.54
2022-08-11T07:45:14.560Z,43.05
2022-08-11T07:46:14.541Z,42.64
2022-08-11T07:47:14.530Z,40.90
2022-08-11T07:48:14.526Z,42.50
2022-08-11T07:49:14.505Z,42.76
2022-08-11T07:50:14.501Z,42.36
2022-08-11T07:51:14.542Z,42.54
2022-08-11T07:52:14.469Z,42.72
2022-08-11T07:53:14.461Z,41.14
2022-08-11T07:54:16.893Z,41.12
2022-08-11T07:55:14.434Z,40.33
2022-08-11T07:56:14.557Z,40.92
2022-08-11T07:58:10.238Z,40.13
2022-08-11T07:58:20.136Z,39.84
2022-08-11T07:59:14.400Z,39.84
2022-08-11T08:00:14.361Z,42.10
2022-08-11T08:01:21.793Z,39.62
2022-08-11T08:02:15.475Z,40.39
2022-08-11T08:03:14.324Z,40.29
2022-08-11T08:04:14.307Z,38.89
2022-08-11T08:05:14.302Z,38.99
2022-08-11T08:06:28.664Z,38.38
2022-08-11T08:07:14.279Z,38.78
2022-08-11T08:08:14.261Z,37.63
2022-08-11T08:09:14.258Z,38.54
2022-08-11T08:10:16.181Z,39.18
2022-08-11T08:11:14.224Z,38.18
2022-08-11T08:12:14.219Z,38.34
2022-08-11T08:13:14.194Z,37.72
2022-08-11T08:14:14.197Z,36.74
2022-08-11T08:15:14.168Z,35.85
2022-08-11T08:16:14.158Z,36.44
2022-08-11T08:17:14.139Z,36.63
2022-08-11T08:18:26.305Z,37.48
2022-08-11T08:19:14.115Z,37.29
2022-08-11T08:20:14.106Z,36.98
2022-08-11T08:21:14.090Z,36.19
2022-08-11T08:22:38.742Z,36.51
2022-08-11T08:23:14.071Z,35.99
2022-08-11T08:24:14.065Z,36.09
2022-08-11T08:25:14.049Z,36.27
2022-08-11T08:26:16.994Z,34.13
2022-08-11T08:27:14.027Z,35.11
2022-08-11T08:28:14.041Z,35.37
2022-08-11T08:29:14.011Z,34.23
2022-08-11T08:30:13.985Z,34.31
2022-08-11T08:31:13.970Z,35.55
2022-08-11T08:32:13.959Z,33.48
2022-08-11T08:33:13.946Z,33.38
2022-08-11T08:34:13.937Z,34.64
2022-08-11T08:35:13.921Z,33.46
2022-08-11T08:36:13.916Z,33.15
2022-08-11T08:37:16.182Z,33.04
2022-08-11T08:38:13.886Z,32.43
2022-08-11T08:39:13.922Z,31.51
2022-08-11T08:40:13.873Z,33.85
2022-08-11T08:41:16.375Z,33.56
2022-08-11T08:42:13.840Z,32.78
2022-08-11T08:43:13.826Z,32.61
2022-08-11T08:44:37.762Z,33.50
2022-08-11T08:45:14.820Z,33.98
2022-08-11T08:46:13.799Z,33.87
2022-08-11T08:47:13.782Z,34.33
2022-08-11T08:48:13.775Z,32.53
2022-08-11T08:49:13.757Z,32.52
2022-08-11T08:50:16.585Z,33.38
2022-08-11T08:51:13.740Z,32.48
2022-08-11T08:52:30.794Z,32.37
2022-08-11T08:53:14.732Z,31.51
2022-08-11T08:54:13.696Z,31.07
2022-08-11T08:55:13.684Z,31.90
2022-08-11T08:56:13.673Z,32.76
2022-08-11T08:57:13.656Z,33.80
2022-08-11T08:58:13.649Z,32.14
2022-08-11T08:59:13.633Z,31.93
2022-08-11T09:00:14.495Z,32.21
2022-08-11T09:01:13.690Z,31.51
2022-08-11T09:02:13.604Z,31.12
2022-08-11T09:03:39.097Z,31.70
2022-08-11T09:04:18.898Z,31.02
2022-08-11T09:05:13.570Z,31.33
2022-08-11T09:06:13.562Z,32.28
2022-08-11T09:07:13.546Z,30.90
2022-08-11T09:08:13.536Z,30.02
2022-08-11T09:09:13.521Z,30.63
2022-08-11T09:10:13.516Z,30.27
2022-08-11T09:11:14.155Z,30.47
2022-08-11T09:12:13.484Z,31.93
2022-08-11T09:13:13.471Z,31.33
2022-08-11T09:14:15.234Z,30.34
2022-08-11T09:15:13.450Z,30.35
2022-08-11T09:16:13.445Z,31.33
2022-08-11T09:17:13.428Z,30.26
2022-08-11T09:18:13.426Z,30.77
2022-08-11T09:19:13.413Z,30.96
2022-08-11T09:20:13.400Z,30.76
2022-08-11T09:21:13.396Z,32.23
2022-08-11T09:22:13.403Z,30.65
2022-08-11T09:24:22.088Z,29.17
2022-08-11T09:25:13.347Z,30.71
2022-08-11T09:26:13.334Z,30.11
2022-08-11T09:27:13.318Z,30.42
2022-08-11T09:28:13.314Z,30.22
2022-08-11T09:29:13.295Z,29.95
2022-08-11T09:30:13.288Z,30.93
2022-08-11T09:31:13.611Z,28.97
2022-08-11T09:32:13.266Z,29.25
2022-08-11T09:33:13.246Z,29.14
2022-08-11T09:34:13.233Z,27.97
2022-08-11T09:35:13.219Z,29.36
2022-08-11T09:36:13.211Z,28.67
2022-08-11T09:37:13.199Z,28.28
2022-08-11T09:38:13.192Z,29.83
2022-08-11T09:39:13.238Z,29.06
2022-08-11T09:40:13.168Z,28.18
2022-08-11T09:41:13.154Z,28.65
2022-08-11T09:42:16.705Z,29.13
2022-08-11T09:43:14.157Z,28.25
2022-08-11T09:44:13.129Z,28.07
2022-08-11T09:45:13.111Z,27.48
2022-08-11T09:46:13.107Z,28.57
2022-08-11T09:47:13.086Z,28.08
2022-08-11T09:48:13.075Z,27.78
2022-08-11T09:49:13.069Z,27.02
2022-08-11T09:50:13.069Z,28.26
2022-08-11T09:51:13.048Z,28.54
2022-08-11T09:52:13.046Z,26.29
2022-08-11T09:53:36.511Z,28.26
2022-08-11T09:54:14.040Z,27.18
2022-08-11T09:55:13.002Z,28.04
2022-08-11T09:56:12.994Z,28.04
2022-08-11T09:57:12.981Z,29.08
2022-08-11T09:58:12.965Z,27.64
2022-08-11T09:59:12.956Z,26.68
2022-08-11T10:00:14.187Z,27.36
2022-08-11T10:01:12.953Z,27.65
2022-08-11T10:02:12.926Z,27.06
2022-08-11T10:03:12.910Z,27.65
2022-08-11T10:04:12.901Z,27.14
2022-08-11T10:05:12.883Z,26.65
2022-08-11T10:06:13.249Z,26.28
2022-08-11T10:07:12.870Z,25.59
2022-08-11T10:08:12.859Z,25.92
2022-08-11T10:09:12.846Z,27.02
2022-08-11T10:10:12.851Z,27.11
2022-08-11T10:11:12.825Z,27.69
2022-08-11T10:12:12.817Z,28.34
2022-08-11T10:14:12.249Z,27.45
2022-08-11T10:14:32.760Z,27.05
2022-08-11T10:15:12.775Z,27.43
2022-08-11T10:16:15.279Z,28.11
2022-08-11T10:17:12.756Z,26.44
2022-08-11T10:18:12.749Z,25.68
2022-08-11T10:19:12.729Z,26.47
2022-08-11T10:20:12.720Z,26.58
2022-08-11T10:21:12.707Z,26.29
2022-08-11T10:22:12.701Z,26.01
2022-08-11T10:23:12.692Z,26.59
2022-08-11T10:24:12.687Z,26.51
2022-08-11T10:25:12.667Z,26.21
2022-08-11T10:26:12.658Z,26.81
2022-08-11T10:27:12.643Z,26.32
2022-08-11T10:28:29.109Z,27.31
2022-08-11T10:29:13.866Z,26.73
2022-08-11T10:30:12.635Z,26.82
2022-08-11T10:31:13.662Z,26.91
2022-08-11T10:32:12.589Z,26.31
2022-08-11T10:33:12.577Z,26.41
2022-08-11T10:34:12.574Z,26.89
2022-08-11T10:35:12.553Z,25.05
2022-08-11T10:36:16.685Z,26.91
2022-08-11T10:37:15.024Z,26.02
2022-08-11T10:38:12.521Z,26.58
2022-08-11T10:39:12.542Z,25.19
2022-08-11T10:40:12.498Z,24.33
2022-08-11T10:41:12.484Z,25.59
2022-08-11T10:42:25.537Z,24.54
2022-08-11T10:43:12.463Z,25.91
2022-08-11T10:44:12.452Z,25.95
2022-08-11T10:45:12.444Z,27.25
2022-08-11T10:46:12.443Z,26.87
2022-08-11T10:47:12.421Z,27.41
2022-08-11T10:48:15.552Z,26.51
2022-08-11T10:49:12.397Z,25.73
2022-08-11T10:50:12.390Z,25.75
2022-08-11T10:51:12.372Z,26.63
2022-08-11T10:52:12.364Z,27.01
2022-08-11T10:53:12.362Z,25.35
2022-08-11T10:54:12.926Z,26.31
2022-08-11T10:55:12.338Z,25.71
2022-08-11T10:56:12.328Z,25.13
2022-08-11T10:57:12.314Z,25.52
2022-08-11T10:58:12.304Z,25.03
2022-08-11T10:59:12.289Z,25.49
2022-08-11T11:00:12.295Z,24.67
2022-08-11T11:01:12.303Z,25.67
2022-08-11T11:02:12.251Z,25.10
2022-08-11T11:03:23.785Z,27.34
2022-08-11T11:04:12.228Z,25.46
2022-08-11T11:05:12.233Z,26.61
2022-08-11T11:06:27.904Z,25.80
2022-08-11T11:07:12.193Z,25.96
2022-08-11T11:08:12.187Z,25.04
2022-08-11T11:09:12.172Z,23.59
2022-08-11T11:10:12.175Z,23.03
2022-08-11T11:11:12.156Z,24.90
2022-08-11T11:12:12.150Z,23.93
2022-08-11T11:13:12.142Z,23.27
2022-08-11T11:14:12.130Z,24.06
2022-08-11T11:15:17.316Z,25.40
2022-08-11T11:16:12.107Z,25.67
2022-08-11T11:17:14.126Z,25.14
2022-08-11T11:18:12.124Z,23.68
2022-08-11T11:19:12.071Z,23.66
2022-08-11T11:20:13.139Z,23.65
2022-08-11T11:21:12.047Z,23.08
2022-08-11T11:22:12.044Z,22.79
2022-08-11T11:23:12.027Z,23.20
2022-08-11T11:24:12.021Z,23.79
2022-08-11T11:25:12.005Z,22.42
2022-08-11T11:26:11.993Z,23.70
2022-08-11T11:27:11.977Z,23.32
2022-08-11T11:28:11.970Z,24.78
2022-08-11T11:29:11.956Z,24.29
2022-08-11T11:30:11.946Z,24.21
2022-08-11T11:31:11.931Z,23.45
2022-08-11T11:32:11.922Z,24.24
2022-08-11T11:33:11.908Z,24.83
2022-08-11T11:34:13.039Z,25.60
2022-08-11T11:35:11.896Z,24.72
2022-08-11T11:36:11.883Z,25.19
2022-08-11T11:37:11.864Z,24.51
2022-08-11T11:38:14.038Z,24.50
2022-08-11T11:39:11.896Z,24.57
2022-08-11T11:40:11.839Z,24.08
2022-08-11T11:41:11.823Z,24.38
2022-08-11T11:42:11.817Z,23.49
2022-08-11T11:43:11.806Z,23.68
2022-08-11T11:44:11.797Z,24.44
2022-08-11T11:45:22.537Z,22.05
2022-08-11T11:46:11.774Z,23.52
2022-08-11T11:47:11.816Z,24.19
2022-08-11T11:48:11.750Z,23.99
2022-08-11T11:49:16.723Z,24.08
2022-08-11T11:50:11.723Z,23.99
2022-08-11T11:51:11.710Z,23.79
2022-08-11T11:52:11.705Z,24.28
2022-08-11T11:53:11.693Z,23.31
2022-08-11T11:54:11.690Z,23.59
2022-08-11T11:55:11.699Z,23.38
2022-08-11T11:56:11.660Z,22.72
2022-08-11T11:57:11.652Z,23.11
2022-08-11T11:58:11.636Z,24.67
2022-08-11T11:59:12.644Z,23.21
2022-08-11T12:00:11.634Z,23.71
2022-08-11T12:01:11.604Z,23.70
2022-08-11T12:02:12.174Z,23.30
2022-08-11T12:03:11.619Z,22.81
2022-08-11T12:04:11.566Z,23.11
2022-08-11T12:05:11.554Z,23.65
2022-08-11T12:06:11.563Z,24.82
2022-08-11T12:07:11.537Z,23.54
2022-08-11T12:08:13.128Z,23.25
2022-08-11T12:09:11.512Z,23.91
2022-08-11T12:10:11.530Z,23.94
2022-08-11T12:11:11.500Z,24.04
2022-08-11T12:12:11.489Z,23.85
2022-08-11T12:13:11.474Z,24.62
2022-08-11T12:14:11.468Z,25.58
2022-08-11T12:15:11.451Z,24.97
2022-08-11T12:16:32.773Z,24.67
2022-08-11T12:17:11.434Z,23.21
2022-08-11T12:18:11.423Z,23.52
2022-08-11T12:19:11.408Z,23.72
2022-08-11T12:20:32.043Z,23.91
2022-08-11T12:21:11.386Z,23.54
2022-08-11T12:22:11.372Z,24.02
2022-08-11T12:23:11.364Z,23.83
2022-08-11T12:24:11.349Z,24.41
2022-08-11T12:25:11.337Z,24.60
2022-08-11T12:26:26.998Z,25.56
2022-08-11T12:27:15.899Z,24.57
2022-08-11T12:28:11.302Z,22.93
2022-08-11T12:29:11.297Z,24.49
2022-08-11T12:30:11.288Z,24.50
2022-08-11T12:31:11.277Z,22.96
2022-08-11T12:32:11.265Z,24.04
2022-08-11T12:33:11.255Z,23.93
2022-08-11T12:34:11.240Z,23.54
2022-08-11T12:35:11.232Z,23.25
2022-08-11T12:36:11.217Z,24.23
2022-08-11T12:37:13.200Z,24.72
2022-08-11T12:38:12.774Z,23.27
2022-08-11T12:39:24.154Z,25.02
2022-08-11T12:40:43.757Z,24.34
2022-08-11T12:41:15.638Z,24.45
2022-08-11T12:42:11.153Z,23.96
2022-08-11T12:43:21.790Z,24.66
2022-08-11T12:44:11.128Z,25.05
2022-08-11T12:45:22.034Z,25.16
2022-08-11T12:46:12.303Z,24.60
2022-08-11T12:47:11.101Z,25.78
2022-08-11T12:48:57.472Z,25.49
2022-08-11T12:49:11.089Z,25.88
2022-08-11T12:50:21.755Z,26.27
2022-08-11T12:51:11.114Z,27.15
2022-08-11T12:52:15.011Z,26.17
2022-08-11T12:53:11.030Z,26.56